SDM2424 UMKK-ULLI
Flight info
| Callsign | SDM2424 |
|---|---|
| Flight time | N/A |
| Altitude | 35000 |
| Route | PELUG3N PELUG DCT KEDUX DCT PIVAX DCT PINIX DCT PIRUX DCT PISIM DCT PIDIN DCT ARANS/K0841F350 DCT PISIS DCT AKARU AKARU1A |
| Aircraft | B738/M-SDE2E3FGHIRWXY/LB1 |
Departure
| Time | 2026-05-08 19:22 |
|---|---|
| Airport | Khrabrovo Airport (UMKK) |
Arrival
| Time | N/A |
|---|---|
| Airport | Pulkovo Airport (ULLI) |
| Time | Latitude | Longitude | Altitude | Speed | Heading |
|---|---|---|---|---|---|
| 2026-05-08 19:20 | 54.88494 | 20.58670 | 36 ft | 0 kts | 53° |
| 2026-05-08 19:20 | 54.88502 | 20.58694 | 36 ft | 3 kts | 60° |
| 2026-05-08 19:20 | 54.88518 | 20.58749 | 37 ft | 8 kts | 64° |
| 2026-05-08 19:21 | 54.88571 | 20.58848 | 38 ft | 14 kts | 7° |
| 2026-05-08 19:21 | 54.88679 | 20.58793 | 36 ft | 17 kts | 348° |
| 2026-05-08 19:21 | 54.88782 | 20.58692 | 36 ft | 18 kts | 330° |
| 2026-05-08 19:21 | 54.88810 | 20.58532 | 36 ft | 30 kts | 246° |
| 2026-05-08 19:22 | 54.88571 | 20.57606 | 39 ft | 134 kts | 246° |
| 2026-05-08 19:22 | 54.88140 | 20.55714 | 411 ft | 194 kts | 249° |
| 2026-05-08 19:22 | 54.87561 | 20.53245 | 1017 ft | 249 kts | 248° |
| 2026-05-08 19:22 | 54.86902 | 20.50310 | 2148 ft | 273 kts | 254° |
| 2026-05-08 19:23 | 54.86721 | 20.47208 | 3435 ft | 274 kts | 282° |
| 2026-05-08 19:23 | 54.86876 | 20.46328 | 3737 ft | 276 kts | 297° |
| 2026-05-08 19:23 | 54.88296 | 20.44175 | 5015 ft | 279 kts | 334° |
| 2026-05-08 19:23 | 54.90092 | 20.43223 | 6205 ft | 285 kts | 345° |
| 2026-05-08 19:24 | 54.92092 | 20.42371 | 7257 ft | 297 kts | 346° |
| 2026-05-08 19:24 | 54.94050 | 20.41652 | 8553 ft | 297 kts | 346° |
| 2026-05-08 19:24 | 54.96061 | 20.40780 | 9600 ft | 305 kts | 342° |
| 2026-05-08 19:24 | 54.98003 | 20.39730 | 10880 ft | 302 kts | 341° |
| 2026-05-08 19:25 | 55.00104 | 20.38693 | 11439 ft | 327 kts | 344° |
| 2026-05-08 19:25 | 55.02277 | 20.37736 | 11995 ft | 347 kts | 345° |
| 2026-05-08 19:25 | 55.04704 | 20.36670 | 12654 ft | 364 kts | 345° |
| 2026-05-08 19:25 | 55.07169 | 20.35511 | 13527 ft | 372 kts | 340° |
| 2026-05-08 19:26 | 55.09594 | 20.33863 | 14456 ft | 376 kts | 335° |
| 2026-05-08 19:26 | 55.12033 | 20.32113 | 15352 ft | 382 kts | 336° |
| 2026-05-08 19:26 | 55.14498 | 20.30421 | 16235 ft | 386 kts | 336° |
| 2026-05-08 19:26 | 55.16968 | 20.28752 | 17086 ft | 390 kts | 336° |
| 2026-05-08 19:27 | 55.19542 | 20.27019 | 17920 ft | 394 kts | 336° |
| 2026-05-08 19:27 | 55.21961 | 20.25394 | 18673 ft | 398 kts | 336° |
| 2026-05-08 19:27 | 55.24439 | 20.23734 | 19408 ft | 401 kts | 336° |
| 2026-05-08 19:27 | 55.27145 | 20.21921 | 20182 ft | 405 kts | 336° |
| 2026-05-08 19:28 | 55.29742 | 20.20182 | 20885 ft | 409 kts | 336° |
| 2026-05-08 19:28 | 55.32424 | 20.18383 | 21586 ft | 412 kts | 336° |
| 2026-05-08 19:28 | 55.35099 | 20.16587 | 22247 ft | 416 kts | 336° |
| 2026-05-08 19:28 | 55.37808 | 20.14767 | 22894 ft | 419 kts | 336° |
| 2026-05-08 19:29 | 55.40516 | 20.12944 | 23504 ft | 422 kts | 336° |
| 2026-05-08 19:29 | 55.43269 | 20.11090 | 24106 ft | 425 kts | 336° |
| 2026-05-08 19:29 | 55.46046 | 20.09216 | 24680 ft | 428 kts | 336° |
| 2026-05-08 19:29 | 55.48825 | 20.07339 | 25237 ft | 431 kts | 336° |
| 2026-05-08 19:30 | 55.51618 | 20.05449 | 25765 ft | 434 kts | 336° |
| 2026-05-08 19:30 | 55.54435 | 20.03540 | 26284 ft | 437 kts | 336° |
| 2026-05-08 19:30 | 55.57262 | 20.01621 | 26776 ft | 440 kts | 336° |
| 2026-05-08 19:30 | 55.60119 | 19.99680 | 27261 ft | 442 kts | 336° |
| 2026-05-08 19:31 | 55.63008 | 19.97713 | 27723 ft | 445 kts | 336° |
| 2026-05-08 19:31 | 55.65878 | 19.95756 | 28171 ft | 448 kts | 336° |
| 2026-05-08 19:31 | 55.68820 | 19.93747 | 28605 ft | 450 kts | 336° |
| 2026-05-08 19:31 | 55.71729 | 19.91757 | 29021 ft | 452 kts | 336° |
| 2026-05-08 19:32 | 55.74665 | 19.89746 | 29423 ft | 455 kts | 336° |
| 2026-05-08 19:32 | 55.77624 | 19.87715 | 29810 ft | 457 kts | 336° |
| 2026-05-08 19:32 | 55.80580 | 19.85683 | 30230 ft | 458 kts | 336° |
| 2026-05-08 19:32 | 55.83525 | 19.83657 | 30671 ft | 458 kts | 336° |
| 2026-05-08 19:33 | 55.86524 | 19.81589 | 31127 ft | 458 kts | 336° |
| 2026-05-08 19:33 | 55.89436 | 19.79578 | 31576 ft | 457 kts | 336° |
| 2026-05-08 19:33 | 55.92407 | 19.77523 | 32039 ft | 456 kts | 337° |
| 2026-05-08 19:33 | 55.95382 | 19.75462 | 32505 ft | 455 kts | 337° |
| 2026-05-08 19:34 | 55.98329 | 19.73417 | 32966 ft | 454 kts | 337° |
| 2026-05-08 19:34 | 56.01214 | 19.71411 | 33418 ft | 452 kts | 337° |
| 2026-05-08 19:34 | 56.04125 | 19.69383 | 33865 ft | 451 kts | 337° |
| 2026-05-08 19:34 | 56.07005 | 19.67375 | 34297 ft | 450 kts | 337° |
| 2026-05-08 19:35 | 56.09915 | 19.65342 | 34707 ft | 449 kts | 337° |
| 2026-05-08 19:35 | 56.12809 | 19.63316 | 35106 ft | 448 kts | 337° |
| 2026-05-08 19:35 | 56.15678 | 19.61332 | 35215 ft | 446 kts | 339° |
| 2026-05-08 19:36 | 56.21682 | 19.58895 | 35214 ft | 445 kts | 355° |
| 2026-05-08 19:36 | 56.24757 | 19.59166 | 35221 ft | 447 kts | 6° |
| 2026-05-08 19:36 | 56.27797 | 19.60265 | 35230 ft | 449 kts | 11° |
| 2026-05-08 19:37 | 56.33868 | 19.62855 | 35235 ft | 450 kts | 10° |
| 2026-05-08 19:37 | 56.39971 | 19.65426 | 35240 ft | 451 kts | 11° |
| 2026-05-08 19:38 | 56.46056 | 19.68029 | 35238 ft | 450 kts | 11° |
| 2026-05-08 19:38 | 56.52157 | 19.70659 | 35236 ft | 450 kts | 11° |
| 2026-05-08 19:39 | 56.58237 | 19.73294 | 35236 ft | 450 kts | 11° |
| 2026-05-08 19:39 | 56.64278 | 19.75925 | 35236 ft | 450 kts | 11° |
| 2026-05-08 19:40 | 56.70376 | 19.78591 | 35236 ft | 450 kts | 11° |
| 2026-05-08 19:40 | 56.76443 | 19.81254 | 35236 ft | 450 kts | 11° |
| 2026-05-08 19:41 | 56.82479 | 19.83912 | 35236 ft | 450 kts | 11° |
| 2026-05-08 19:41 | 56.88568 | 19.86604 | 35236 ft | 450 kts | 11° |
| 2026-05-08 19:42 | 56.94629 | 19.89292 | 35236 ft | 450 kts | 11° |
| 2026-05-08 19:42 | 57.00625 | 19.91972 | 35236 ft | 452 kts | 11° |
| 2026-05-08 19:43 | 57.11828 | 19.98053 | 35236 ft | 462 kts | 13° |
| 2026-05-08 19:44 | 57.17974 | 20.01413 | 35236 ft | 463 kts | 13° |
| 2026-05-08 19:44 | 57.24168 | 20.04811 | 35235 ft | 462 kts | 13° |
| 2026-05-08 19:45 | 57.30324 | 20.08198 | 35236 ft | 462 kts | 13° |
| 2026-05-08 19:45 | 57.36477 | 20.11594 | 35236 ft | 462 kts | 13° |
| 2026-05-08 19:46 | 57.42612 | 20.14991 | 35237 ft | 463 kts | 13° |
| 2026-05-08 19:46 | 57.51751 | 20.20076 | 35247 ft | 461 kts | 13° |
| 2026-05-08 19:47 | 57.63988 | 20.26920 | 35263 ft | 462 kts | 13° |
| 2026-05-08 19:48 | 57.70163 | 20.30394 | 35263 ft | 462 kts | 13° |
| 2026-05-08 19:48 | 57.76282 | 20.33848 | 35263 ft | 462 kts | 13° |
| 2026-05-08 19:49 | 57.82396 | 20.37311 | 35263 ft | 462 kts | 13° |
| 2026-05-08 19:49 | 57.88470 | 20.40763 | 35263 ft | 462 kts | 13° |
| 2026-05-08 19:50 | 57.94452 | 20.44176 | 35263 ft | 462 kts | 13° |